ENTO/TRF METAR and TAF weather

Enter ICAO airport designator
Station Type Date Time Source
ENTO METAR 2020/09/22 18:20 UTC NOAA

ENTO 221820Z 21014KT 9999 FEW025 13/10 Q1003 NOSIG


Station Type Date Time Source
ENTO Decoded METAR 2020/09/22 18:20 UTC NOAA

Torp, Norway (ENTO) 59-12N 010-16E 88M
Sep 22, 2020 - 02:20 PM EDT / 2020.09.22 1820 UTC
Wind: from the SSW (210 degrees) at 16 MPH (14 KT):0
Visibility: greater than 7 mile(s):0
Sky conditions: mostly clear
Temperature: 55 F (13 C)
Dew Point: 50 F (10 C)
Relative Humidity: 81%
Pressure (altimeter): 29.62 in. Hg (1003 hPa)
ob: ENTO 221820Z 21014KT 9999 FEW025 13/10 Q1003 NOSIG
cycle: 18

Station Type Date Time Source
ENTO TAF 2020/09/22 18:57 UTC NOAA

TAF ENTO 221700Z 2218/2318 21012KT 9999 SCT020 PROB40 2219/2224 BKN012
BECMG 2300/2302 BKN008
TEMPO 2302/2307 2500 -DZRA BR OVC004
TEMPO 2307/2318 4000 SHRA BR BKN012 SCT020CB

Example: see airport list